createdAt,value
2023-04-14T00:01:24.476Z,99.90
2023-04-14T00:03:53.006Z,99.90
2023-04-14T00:06:21.078Z,99.90
2023-04-14T00:08:49.047Z,99.90
2023-04-14T00:11:18.378Z,99.90
2023-04-14T00:13:46.328Z,99.90
2023-04-14T00:16:14.342Z,99.90
2023-04-14T00:18:42.549Z,99.90
2023-04-14T00:21:10.566Z,99.90
2023-04-14T00:23:38.439Z,99.90
2023-04-14T00:26:06.827Z,99.90
2023-04-14T00:28:36.150Z,99.90
2023-04-14T00:31:04.079Z,99.90
2023-04-14T00:33:33.097Z,99.90
2023-04-14T00:36:02.802Z,99.90
2023-04-14T00:38:31.460Z,99.90
2023-04-14T00:40:59.446Z,99.90
2023-04-14T00:43:27.369Z,99.90
2023-04-14T00:45:56.920Z,99.90
2023-04-14T00:48:24.933Z,99.90
2023-04-14T00:50:53.043Z,99.90
2023-04-14T00:53:21.612Z,99.90
2023-04-14T00:55:49.857Z,99.90
2023-04-14T00:58:17.908Z,99.90
2023-04-14T01:00:52.290Z,99.90
2023-04-14T01:03:21.966Z,99.90
2023-04-14T01:05:49.986Z,99.90
2023-04-14T01:08:19.470Z,99.90
2023-04-14T01:10:57.758Z,99.90
2023-04-14T01:13:36.653Z,99.90
2023-04-14T01:16:10.918Z,99.90
2023-04-14T01:18:48.317Z,99.90
2023-04-14T01:21:21.741Z,99.90
2023-04-14T01:24:06.345Z,99.90
2023-04-14T01:26:35.426Z,99.90
2023-04-14T01:29:31.460Z,99.90
2023-04-14T01:32:05.634Z,99.90
2023-04-14T01:34:42.988Z,99.90
2023-04-14T01:37:15.922Z,99.90
2023-04-14T01:39:49.460Z,99.90
2023-04-14T01:42:23.019Z,99.90
2023-04-14T01:44:57.596Z,99.90
2023-04-14T01:47:28.727Z,99.90
2023-04-14T01:49:57.695Z,99.90
2023-04-14T01:52:27.683Z,99.90
2023-04-14T01:54:58.626Z,99.90
2023-04-14T01:57:30.188Z,99.90
2023-04-14T02:00:00.381Z,99.90
2023-04-14T02:02:31.439Z,99.90
2023-04-14T02:05:03.784Z,99.90
2023-04-14T02:07:34.521Z,99.90
2023-04-14T02:10:04.345Z,99.90
2023-04-14T02:12:33.359Z,99.90
2023-04-14T02:15:02.559Z,99.90
2023-04-14T02:17:32.320Z,99.90
2023-04-14T02:20:01.336Z,99.90
2023-04-14T02:22:29.315Z,99.90
2023-04-14T02:24:57.319Z,99.90
2023-04-14T02:27:32.147Z,99.90
2023-04-14T02:30:08.022Z,99.90
2023-04-14T02:32:40.675Z,99.90
2023-04-14T02:35:13.757Z,99.90
2023-04-14T02:37:44.987Z,99.90
2023-04-14T02:40:16.939Z,99.90
2023-04-14T02:42:49.045Z,99.90
2023-04-14T02:45:23.033Z,99.90
2023-04-14T02:47:57.866Z,99.90
2023-04-14T02:50:28.073Z,99.90
2023-04-14T02:53:07.093Z,99.90
2023-04-14T02:55:38.908Z,99.90
2023-04-14T02:58:07.274Z,99.90
2023-04-14T03:00:40.890Z,99.90
2023-04-14T03:03:12.862Z,99.90
2023-04-14T03:05:41.827Z,99.90
2023-04-14T03:08:13.269Z,99.90
2023-04-14T03:10:46.378Z,99.90
2023-04-14T03:13:17.805Z,99.90
2023-04-14T03:15:46.732Z,99.90
2023-04-14T03:18:19.658Z,99.90
2023-04-14T03:20:50.165Z,99.90
2023-04-14T03:23:20.288Z,99.90
2023-04-14T03:25:55.155Z,99.90
2023-04-14T03:28:32.689Z,99.90
2023-04-14T03:31:05.990Z,99.90
2023-04-14T03:33:47.063Z,99.90
2023-04-14T03:36:18.938Z,99.90
2023-04-14T03:38:49.895Z,99.90
2023-04-14T03:41:22.135Z,99.90
2023-04-14T03:43:54.632Z,99.90
2023-04-14T03:46:23.985Z,99.90
2023-04-14T03:48:54.608Z,99.90
2023-04-14T03:51:27.484Z,99.90
2023-04-14T03:53:58.148Z,99.90
2023-04-14T03:56:27.777Z,99.90
2023-04-14T03:58:58.343Z,99.90
2023-04-14T04:01:27.944Z,99.90
2023-04-14T04:04:01.780Z,99.90
2023-04-14T04:06:30.140Z,99.90
2023-04-14T04:09:00.534Z,99.90
2023-04-14T04:11:29.692Z,99.90
2023-04-14T04:13:59.666Z,99.90
2023-04-14T04:16:30.342Z,99.90
2023-04-14T04:19:01.207Z,99.90
2023-04-14T04:21:33.564Z,99.90
2023-04-14T04:24:03.024Z,99.90
2023-04-14T04:26:31.256Z,99.90
2023-04-14T04:29:01.158Z,99.90
2023-04-14T04:31:30.519Z,99.90
2023-04-14T04:34:00.676Z,99.90
2023-04-14T04:36:29.468Z,99.90
2023-04-14T04:38:58.632Z,99.90
2023-04-14T04:41:29.391Z,99.90
2023-04-14T04:44:00.212Z,99.90
2023-04-14T04:46:45.293Z,99.90
2023-04-14T04:49:14.767Z,99.90
2023-04-14T04:51:43.860Z,99.90
2023-04-14T04:54:11.907Z,99.90
2023-04-14T04:56:39.917Z,99.90
2023-04-14T04:59:07.882Z,99.90
2023-04-14T05:01:36.049Z,99.90
2023-04-14T05:04:04.231Z,99.90
2023-04-14T05:06:37.014Z,99.90
2023-04-14T05:09:05.543Z,99.90
2023-04-14T05:11:33.875Z,99.90
2023-04-14T05:14:01.850Z,99.90
2023-04-14T05:16:30.001Z,99.90
2023-04-14T05:18:57.933Z,99.90
2023-04-14T05:21:25.990Z,99.90
2023-04-14T05:23:55.672Z,99.90
2023-04-14T05:28:54.805Z,99.90
2023-04-14T05:31:23.187Z,99.90
2023-04-14T05:33:51.274Z,99.90
2023-04-14T05:36:19.254Z,99.90
2023-04-14T05:38:47.186Z,99.90
2023-04-14T05:41:16.669Z,99.90
2023-04-14T05:43:44.632Z,99.90
2023-04-14T05:46:12.583Z,99.90
2023-04-14T05:48:40.513Z,99.90
2023-04-14T05:51:08.510Z,99.90
2023-04-14T05:53:36.524Z,99.90
2023-04-14T05:56:04.707Z,99.90
2023-04-14T05:58:33.995Z,99.90
2023-04-14T06:01:03.933Z,99.90
2023-04-14T06:03:32.093Z,99.90
2023-04-14T06:06:00.342Z,99.90
2023-04-14T06:08:30.068Z,99.90
2023-04-14T06:10:58.078Z,99.90
2023-04-14T06:13:26.004Z,99.90
2023-04-14T06:15:56.000Z,99.90
2023-04-14T06:18:23.918Z,99.90
2023-04-14T06:20:51.818Z,99.90
2023-04-14T06:23:21.482Z,99.90
2023-04-14T06:25:49.639Z,99.90
2023-04-14T06:28:18.686Z,99.90
2023-04-14T06:30:46.682Z,99.90
2023-04-14T06:33:15.993Z,99.90
2023-04-14T06:35:45.201Z,99.90
2023-04-14T06:38:13.106Z,99.90
2023-04-14T06:40:41.185Z,99.90
2023-04-14T06:43:10.848Z,99.90
2023-04-14T06:45:39.312Z,99.90
2023-04-14T06:48:07.965Z,99.90
2023-04-14T06:50:37.361Z,99.90
2023-04-14T06:53:06.354Z,99.90
2023-04-14T06:55:36.636Z,99.90
2023-04-14T06:58:04.747Z,99.90
2023-04-14T07:00:32.776Z,99.90
2023-04-14T07:03:00.821Z,99.90
2023-04-14T07:05:28.873Z,99.90
2023-04-14T07:07:58.146Z,99.90
2023-04-14T07:10:26.206Z,99.90
2023-04-14T07:12:54.250Z,99.90
2023-04-14T07:15:22.190Z,99.90
2023-04-14T07:17:50.228Z,99.90
2023-04-14T07:20:18.546Z,99.90
2023-04-14T07:22:46.569Z,99.90
2023-04-14T07:25:16.036Z,99.90
2023-04-14T07:27:56.216Z,99.90
2023-04-14T07:30:28.484Z,99.90
2023-04-14T07:32:56.821Z,99.90
2023-04-14T07:35:26.062Z,99.90
2023-04-14T07:37:54.096Z,99.90
2023-04-14T07:40:23.557Z,99.90
2023-04-14T07:42:51.662Z,99.90
2023-04-14T07:45:19.823Z,99.90
2023-04-14T07:47:47.780Z,99.90
2023-04-14T07:50:17.738Z,99.90
2023-04-14T07:52:47.214Z,99.90
2023-04-14T07:55:15.168Z,99.90
2023-04-14T07:57:44.634Z,99.90
2023-04-14T08:00:13.671Z,99.90
2023-04-14T08:02:41.689Z,99.90
2023-04-14T08:05:09.894Z,99.90
2023-04-14T08:07:38.630Z,99.90
2023-04-14T08:10:07.451Z,99.90
2023-04-14T08:12:35.469Z,99.90
2023-04-14T08:15:05.380Z,99.90
2023-04-14T08:17:33.573Z,99.90
2023-04-14T08:20:01.679Z,99.90
2023-04-14T08:22:29.636Z,99.90
2023-04-14T08:24:57.508Z,99.90
2023-04-14T08:27:25.664Z,99.90
2023-04-14T08:29:54.134Z,99.90
2023-04-14T08:32:23.621Z,99.90
2023-04-14T08:35:37.168Z,99.90
2023-04-14T08:37:39.557Z,99.90
2023-04-14T08:40:11.290Z,99.90
2023-04-14T08:42:39.338Z,99.90
2023-04-14T08:45:08.493Z,99.90
2023-04-14T08:47:40.857Z,99.90
2023-04-14T08:50:14.370Z,99.90
2023-04-14T08:52:43.147Z,99.90
2023-04-14T08:55:13.004Z,99.90
2023-04-14T08:57:43.596Z,99.90
2023-04-14T09:00:13.015Z,99.90
2023-04-14T09:02:43.281Z,99.90
2023-04-14T09:05:12.561Z,99.90
2023-04-14T09:07:42.719Z,99.90
2023-04-14T09:10:12.652Z,99.90
2023-04-14T09:12:42.083Z,99.90
2023-04-14T09:15:12.463Z,99.90
2023-04-14T09:17:42.081Z,99.90
2023-04-14T09:20:35.108Z,99.90
2023-04-14T09:22:59.486Z,99.90
2023-04-14T09:25:28.064Z,99.90
2023-04-14T09:27:56.264Z,99.90
2023-04-14T09:30:24.408Z,99.90
2023-04-14T09:32:54.570Z,99.90
2023-04-14T09:35:22.594Z,99.90
2023-04-14T09:37:50.679Z,99.90
2023-04-14T09:40:31.670Z,99.90
2023-04-14T09:42:59.724Z,99.90
2023-04-14T09:45:42.969Z,97.20
2023-04-14T09:48:13.837Z,96.50
2023-04-14T09:50:58.121Z,94.40
2023-04-14T09:53:27.854Z,93.10
2023-04-14T09:55:56.262Z,93.20
2023-04-14T09:58:27.261Z,93.20
2023-04-14T10:00:57.271Z,93.90
2023-04-14T10:03:38.109Z,94.60
2023-04-14T10:06:10.638Z,94.60
2023-04-14T10:08:41.012Z,93.80
2023-04-14T10:11:17.008Z,93.90
2023-04-14T10:13:45.858Z,92.40
2023-04-14T10:16:14.556Z,92.50
2023-04-14T10:18:44.073Z,92.40
2023-04-14T10:21:12.570Z,91.80
2023-04-14T10:23:42.189Z,92.20
2023-04-14T10:26:11.993Z,91.20
2023-04-14T10:28:44.648Z,90.60
2023-04-14T10:31:16.100Z,90.40
2023-04-14T10:33:45.580Z,87.30
2023-04-14T10:36:13.816Z,87.30
2023-04-14T10:38:43.520Z,87.30
2023-04-14T10:41:12.594Z,82.90
2023-04-14T10:43:41.667Z,79.80
2023-04-14T10:46:11.263Z,84.10
2023-04-14T10:48:41.395Z,83.10
2023-04-14T10:51:11.860Z,84.70
2023-04-14T10:53:46.278Z,83.20
2023-04-14T10:56:14.736Z,83.50
2023-04-14T10:58:54.430Z,81.30
2023-04-14T11:01:26.411Z,77.00
2023-04-14T11:03:56.295Z,78.20
2023-04-14T11:06:51.670Z,79.60
2023-04-14T11:09:37.912Z,78.20
2023-04-14T11:12:23.035Z,76.20
2023-04-14T11:14:51.532Z,72.70
2023-04-14T11:17:22.104Z,71.80
2023-04-14T11:19:54.012Z,69.90
2023-04-14T11:22:41.904Z,67.90
2023-04-14T11:25:13.062Z,65.30
2023-04-14T11:27:41.673Z,65.50
2023-04-14T11:30:14.875Z,64.30
2023-04-14T11:32:51.185Z,63.60
2023-04-14T11:35:20.298Z,62.00
2023-04-14T11:37:49.706Z,61.50
2023-04-14T11:40:17.686Z,61.80
2023-04-14T11:42:48.028Z,62.30
2023-04-14T11:45:16.505Z,61.90
2023-04-14T11:47:56.724Z,62.20
2023-04-14T11:50:24.888Z,61.50
2023-04-14T11:52:55.327Z,62.10
2023-04-14T11:55:24.768Z,62.00
2023-04-14T11:57:52.833Z,60.50
2023-04-14T12:00:20.974Z,58.40
2023-04-14T12:02:49.489Z,58.30
2023-04-14T12:05:25.444Z,58.30
2023-04-14T12:08:00.662Z,57.90
2023-04-14T12:10:29.253Z,57.50
2023-04-14T12:13:01.617Z,55.50
2023-04-14T12:15:30.400Z,55.40
2023-04-14T12:17:59.064Z,53.80
2023-04-14T12:20:27.563Z,52.20
2023-04-14T12:23:03.770Z,52.30
2023-04-14T12:25:33.943Z,51.60
2023-04-14T12:28:05.920Z,52.70
2023-04-14T12:30:34.139Z,52.80
2023-04-14T12:33:09.693Z,51.60
2023-04-14T12:35:37.603Z,49.70
2023-04-14T12:38:13.414Z,48.70
2023-04-14T12:40:43.870Z,47.80
2023-04-14T12:43:12.102Z,48.90
2023-04-14T12:45:44.198Z,48.00
2023-04-14T12:48:13.744Z,48.20
2023-04-14T12:50:41.754Z,46.70
2023-04-14T12:53:28.402Z,47.10
2023-04-14T12:56:07.924Z,47.00
2023-04-14T12:58:36.634Z,45.60
2023-04-14T13:01:06.100Z,45.40
2023-04-14T13:03:41.826Z,43.50
2023-04-14T13:06:11.326Z,43.70
2023-04-14T13:08:43.659Z,43.80
2023-04-14T13:11:12.096Z,42.80
2023-04-14T13:13:40.043Z,42.30
2023-04-14T13:16:13.026Z,42.10
2023-04-14T13:18:43.579Z,43.60
2023-04-14T13:21:11.701Z,44.20
2023-04-14T13:23:41.695Z,43.50
2023-04-14T13:26:09.704Z,43.20
2023-04-14T13:28:37.736Z,42.60
2023-04-14T13:31:06.297Z,42.60
2023-04-14T13:33:34.655Z,42.70
2023-04-14T13:36:03.210Z,42.00
2023-04-14T13:38:31.722Z,42.30
2023-04-14T13:41:01.189Z,41.10
2023-04-14T13:43:29.900Z,42.80
2023-04-14T13:45:59.048Z,41.50
2023-04-14T13:48:27.300Z,40.40
2023-04-14T13:50:55.918Z,39.20
2023-04-14T13:53:24.218Z,39.60
2023-04-14T13:55:52.296Z,39.20
2023-04-14T13:58:22.766Z,41.20
2023-04-14T14:00:50.702Z,41.20
2023-04-14T14:03:18.788Z,39.90
2023-04-14T14:05:46.783Z,40.50
2023-04-14T14:08:15.814Z,40.40
2023-04-14T14:10:43.952Z,40.50
2023-04-14T14:13:11.913Z,40.30
2023-04-14T14:15:41.271Z,38.20
2023-04-14T14:18:09.448Z,38.00
2023-04-14T14:20:37.410Z,37.90
2023-04-14T14:23:05.408Z,37.40
2023-04-14T14:25:33.405Z,37.10
2023-04-14T14:28:01.365Z,36.90
2023-04-14T14:30:29.422Z,37.00
2023-04-14T14:32:58.795Z,37.60
2023-04-14T14:35:26.850Z,37.80
2023-04-14T14:37:54.872Z,38.60
2023-04-14T14:40:23.026Z,38.30
2023-04-14T14:42:51.892Z,37.10
2023-04-14T14:45:30.307Z,36.80
2023-04-14T14:48:01.373Z,37.90
2023-04-14T14:50:29.449Z,37.60
2023-04-14T14:52:57.695Z,37.40
2023-04-14T14:55:25.695Z,38.10
2023-04-14T14:57:53.664Z,38.70
2023-04-14T15:00:21.769Z,38.50
2023-04-14T15:02:50.036Z,38.00
2023-04-14T15:05:19.836Z,37.50
2023-04-14T15:07:47.709Z,38.00
2023-04-14T15:10:16.302Z,38.40
2023-04-14T15:12:44.441Z,38.10
2023-04-14T15:15:13.009Z,36.90
2023-04-14T15:17:41.094Z,36.60
2023-04-14T15:20:10.084Z,36.20
2023-04-14T15:22:39.540Z,35.80
2023-04-14T15:25:09.134Z,34.80
2023-04-14T15:27:37.479Z,35.00
2023-04-14T15:30:06.785Z,35.50
2023-04-14T15:32:34.752Z,36.20
2023-04-14T15:35:02.965Z,35.60
2023-04-14T15:37:31.086Z,36.40
2023-04-14T15:40:01.335Z,36.10
2023-04-14T15:42:29.345Z,35.30
2023-04-14T15:44:57.399Z,34.80
2023-04-14T15:47:25.442Z,34.60
2023-04-14T15:50:10.010Z,34.60
2023-04-14T15:52:39.425Z,34.50
2023-04-14T15:55:10.687Z,34.00
2023-04-14T15:57:38.744Z,33.90
2023-04-14T16:00:08.360Z,34.60
2023-04-14T16:02:42.968Z,35.80
2023-04-14T16:05:11.698Z,36.90
2023-04-14T16:07:40.244Z,36.80
2023-04-14T16:10:10.345Z,36.10
2023-04-14T16:12:38.764Z,35.30
2023-04-14T16:15:08.660Z,34.30
2023-04-14T16:17:36.584Z,34.70
2023-04-14T16:20:05.530Z,35.30
2023-04-14T16:22:34.222Z,35.10
2023-04-14T16:25:02.267Z,34.80
2023-04-14T16:27:31.752Z,35.00
2023-04-14T16:29:59.725Z,34.80
2023-04-14T16:32:29.667Z,35.90
2023-04-14T16:34:58.014Z,36.90
2023-04-14T16:37:27.585Z,37.30
2023-04-14T16:39:55.919Z,38.40
2023-04-14T16:42:25.045Z,39.80
2023-04-14T16:44:54.898Z,40.00
2023-04-14T16:47:23.841Z,40.90
2023-04-14T16:49:51.980Z,41.50
2023-04-14T16:52:20.160Z,41.30
2023-04-14T16:54:48.038Z,41.80
2023-04-14T16:57:16.302Z,41.50
2023-04-14T16:59:46.076Z,41.90
2023-04-14T17:02:15.621Z,42.10
2023-04-14T17:04:43.986Z,42.90
2023-04-14T17:07:12.476Z,43.00
2023-04-14T17:09:40.549Z,43.40
2023-04-14T17:12:08.590Z,43.50
2023-04-14T17:14:37.256Z,44.00
2023-04-14T17:17:05.370Z,44.20
2023-04-14T17:19:34.940Z,44.50
2023-04-14T17:22:03.522Z,44.50
2023-04-14T17:24:31.675Z,44.50
2023-04-14T17:27:00.531Z,45.10
2023-04-14T17:29:28.728Z,45.20
2023-04-14T17:31:56.883Z,45.50
2023-04-14T17:34:25.514Z,46.00
2023-04-14T17:36:56.037Z,46.10
2023-04-14T17:39:26.725Z,46.00
2023-04-14T17:41:56.147Z,46.20
2023-04-14T17:44:30.718Z,46.20
2023-04-14T17:47:00.930Z,46.80
2023-04-14T17:49:29.325Z,47.20
2023-04-14T17:51:58.870Z,47.60
2023-04-14T17:54:27.377Z,47.60
2023-04-14T17:56:56.698Z,48.20
2023-04-14T17:59:24.933Z,48.70
2023-04-14T18:01:53.345Z,49.20
2023-04-14T18:04:21.811Z,49.80
2023-04-14T18:06:50.147Z,50.50
2023-04-14T18:09:19.562Z,50.90
2023-04-14T18:11:47.958Z,51.20
2023-04-14T18:14:16.085Z,51.20
2023-04-14T18:16:44.175Z,51.70
2023-04-14T18:19:12.260Z,52.60
2023-04-14T18:21:40.649Z,52.70
2023-04-14T18:26:42.717Z,53.10
2023-04-14T18:29:10.798Z,54.40
2023-04-14T18:31:38.777Z,55.00
2023-04-14T18:34:09.318Z,56.60
2023-04-14T18:36:37.886Z,58.00
2023-04-14T18:39:07.032Z,59.20
2023-04-14T18:41:35.161Z,60.00
2023-04-14T18:44:04.411Z,61.70
2023-04-14T18:46:32.543Z,62.80
2023-04-14T18:49:00.809Z,65.50
2023-04-14T18:51:29.008Z,68.40
2023-04-14T18:53:56.988Z,69.60
2023-04-14T18:56:26.030Z,69.80
2023-04-14T18:58:55.754Z,70.60
2023-04-14T19:01:25.065Z,71.60
2023-04-14T19:03:54.420Z,73.20
2023-04-14T19:06:22.905Z,75.40
2023-04-14T19:08:50.881Z,76.50
2023-04-14T19:11:20.297Z,77.30
2023-04-14T19:13:48.229Z,78.60
2023-04-14T19:16:17.808Z,80.40
2023-04-14T19:18:47.464Z,81.50
2023-04-14T19:21:15.468Z,82.90
2023-04-14T19:23:43.434Z,85.90
2023-04-14T19:26:13.412Z,87.20
2023-04-14T19:28:42.420Z,88.90
2023-04-14T19:31:10.723Z,88.10
2023-04-14T19:33:39.213Z,89.70
2023-04-14T19:36:14.205Z,90.70
2023-04-14T19:38:42.367Z,91.00
2023-04-14T19:41:10.629Z,91.20
2023-04-14T19:43:38.658Z,92.20
2023-04-14T19:46:08.018Z,93.50
2023-04-14T19:48:36.065Z,94.70
2023-04-14T19:51:04.136Z,95.40
2023-04-14T19:53:33.559Z,95.20
2023-04-14T19:56:02.112Z,95.80
2023-04-14T19:58:31.274Z,96.20
2023-04-14T20:01:00.991Z,96.30
2023-04-14T20:03:29.652Z,96.40
2023-04-14T20:05:58.935Z,96.10
2023-04-14T20:08:27.530Z,96.40
2023-04-14T20:10:57.589Z,97.10
2023-04-14T20:13:27.670Z,98.00
2023-04-14T20:15:56.208Z,99.40
2023-04-14T20:18:25.947Z,99.90
2023-04-14T20:20:54.768Z,99.90
2023-04-14T20:23:22.808Z,99.90
2023-04-14T20:25:51.481Z,99.90
2023-04-14T20:28:23.088Z,99.90
2023-04-14T20:30:52.646Z,99.90
2023-04-14T20:33:21.640Z,99.90
2023-04-14T20:35:51.448Z,99.90
2023-04-14T20:38:19.441Z,99.90
2023-04-14T20:40:47.766Z,99.90
2023-04-14T20:43:15.764Z,99.90
2023-04-14T20:45:45.560Z,99.90
2023-04-14T20:48:13.612Z,99.90
2023-04-14T20:50:41.628Z,99.90
2023-04-14T20:53:09.981Z,99.90
2023-04-14T20:55:41.046Z,99.90
2023-04-14T20:58:09.141Z,99.90
2023-04-14T21:00:37.096Z,99.90
2023-04-14T21:03:06.530Z,99.90
2023-04-14T21:05:34.651Z,99.90
2023-04-14T21:08:02.692Z,99.90
2023-04-14T21:10:30.615Z,99.90
2023-04-14T21:15:26.678Z,99.90
2023-04-14T21:15:52.735Z,99.90
2023-04-14T21:18:25.949Z,99.90
2023-04-14T21:20:53.857Z,99.90
2023-04-14T21:23:22.054Z,99.90
2023-04-14T21:25:50.165Z,99.90
2023-04-14T21:28:18.122Z,99.90
2023-04-14T21:30:46.103Z,99.90
2023-04-14T21:33:14.094Z,99.90
2023-04-14T21:35:43.480Z,99.90
2023-04-14T21:38:11.403Z,99.90
2023-04-14T21:40:39.536Z,99.90
2023-04-14T21:43:07.450Z,99.90
2023-04-14T21:45:36.059Z,99.90
2023-04-14T21:48:04.121Z,99.90
2023-04-14T21:50:33.283Z,99.90
2023-04-14T21:53:04.173Z,99.90
2023-04-14T21:55:32.432Z,99.90
2023-04-14T21:58:02.408Z,99.90
2023-04-14T22:00:31.139Z,99.90
2023-04-14T22:02:59.270Z,99.90
2023-04-14T22:05:27.505Z,99.90
2023-04-14T22:07:55.471Z,99.90
2023-04-14T22:10:31.697Z,99.90
2023-04-14T22:13:00.661Z,99.90
2023-04-14T22:15:29.412Z,99.90
2023-04-14T22:17:58.466Z,99.90
2023-04-14T22:20:26.771Z,99.90
2023-04-14T22:22:54.686Z,99.90
2023-04-14T22:25:24.554Z,99.90
2023-04-14T22:27:52.539Z,99.90
2023-04-14T22:30:20.677Z,99.90
2023-04-14T22:32:48.878Z,99.90
2023-04-14T22:35:17.366Z,99.90
2023-04-14T22:37:45.326Z,99.90
2023-04-14T22:40:13.667Z,99.90
2023-04-14T22:42:42.896Z,99.90
2023-04-14T22:45:11.088Z,99.90
2023-04-14T22:47:39.071Z,99.90
2023-04-14T22:50:09.035Z,99.90
2023-04-14T22:52:37.577Z,99.90
2023-04-14T22:55:06.683Z,99.90
2023-04-14T22:57:34.616Z,99.90
2023-04-14T23:00:09.066Z,99.90
2023-04-14T23:02:37.205Z,99.90
2023-04-14T23:05:06.714Z,99.90
2023-04-14T23:07:34.695Z,99.90
2023-04-14T23:10:03.266Z,99.90
2023-04-14T23:12:31.300Z,99.90
2023-04-14T23:14:59.340Z,99.90
2023-04-14T23:17:29.059Z,99.90
2023-04-14T23:19:57.048Z,99.90
2023-04-14T23:22:25.579Z,99.90
2023-04-14T23:24:53.534Z,99.90
2023-04-14T23:27:21.796Z,99.90
2023-04-14T23:29:49.819Z,99.90
2023-04-14T23:32:17.943Z,99.90
2023-04-14T23:34:47.281Z,99.90
2023-04-14T23:37:15.291Z,99.90
2023-04-14T23:39:43.178Z,99.90
2023-04-14T23:42:11.114Z,99.90
2023-04-14T23:44:39.191Z,99.90
2023-04-14T23:47:08.517Z,99.90
2023-04-14T23:49:37.018Z,99.90
2023-04-14T23:52:06.937Z,99.90
2023-04-14T23:54:34.881Z,99.90
2023-04-14T23:57:03.244Z,99.90
2023-04-14T23:59:31.220Z,99.90
